Time;durP1;ratioP1;P1;durP2;ratioP2;P2;SDS_P1;SDS_P2;PMS_P1;PMS_P2;Temp;Humidity;BMP_temperature;BMP_pressure;BME280_temperature;BME280_humidity;BME280_pressure;Samples;Min_cycle;Max_cycle;Signal;HPM_P1;HPM_P2
2022/05/29 00:01:55;;;;;;;3.33;0.95;;;;;;;17.18;38.37;99633.88;4364690;32;32149;-88
2022/05/29 00:04:31;;;;;;;3.25;1.00;;;;;;;17.09;38.64;99638.16;4365009;32;35318;-88
2022/05/29 00:07:07;;;;;;;2.85;1.10;;;;;;;17.03;38.62;99637.25;4351985;32;34398;-88
2022/05/29 00:09:42;;;;;;;3.58;1.00;;;;;;;16.94;39.00;99630.44;4364751;32;32078;-87
2022/05/29 00:12:14;;;;;;;3.80;1.48;;;;;;;16.99;38.74;99633.28;4352729;32;32653;-88
2022/05/29 00:14:47;;;;;;;2.42;0.75;;;;;;;16.95;38.77;99629.34;4365264;32;34964;-88
2022/05/29 00:17:18;;;;;;;1.90;0.80;;;;;;;17.06;38.71;99627.59;4364349;32;34125;-88
2022/05/29 00:19:48;;;;;;;2.42;0.85;;;;;;;16.97;39.07;99623.53;4365221;32;33707;-87
2022/05/29 00:22:23;;;;;;;2.60;0.80;;;;;;;16.95;39.26;99623.78;4352139;32;32269;-88
2022/05/29 00:24:52;;;;;;;1.85;0.85;;;;;;;16.99;38.90;99624.97;4364989;32;34243;-88
2022/05/29 00:27:26;;;;;;;2.17;0.80;;;;;;;16.87;39.27;99617.88;4339663;32;33411;-88
2022/05/29 00:29:57;;;;;;;2.53;0.90;;;;;;;16.83;39.08;99622.22;4352986;32;33581;-88
2022/05/29 00:32:27;;;;;;;3.03;1.10;;;;;;;16.96;38.45;99616.31;4364493;32;32328;-88
2022/05/29 00:34:57;;;;;;;2.58;0.88;;;;;;;16.90;38.53;99614.59;4364789;32;34603;-88
2022/05/29 00:37:31;;;;;;;2.12;0.95;;;;;;;16.87;38.64;99612.31;4364640;32;34054;-88
2022/05/29 00:40:30;;;;;;;1.83;0.80;;;;;;;16.84;38.66;99607.28;4349982;32;33166;-88
2022/05/29 00:43:01;;;;;;;3.67;0.88;;;;;;;16.79;38.94;99610.81;4347039;32;34455;-88
2022/05/29 00:45:40;;;;;;;3.70;0.90;;;;;;;16.87;38.85;99604.00;4350175;32;34706;-89
2022/05/29 00:48:13;;;;;;;3.30;1.00;;;;;;;16.94;38.64;99597.16;4347786;32;119439;-88
2022/05/29 00:50:45;;;;;;;2.47;1.00;;;;;;;16.88;38.94;99591.81;4362138;32;34042;-88
2022/05/29 00:53:15;;;;;;;1.65;0.77;;;;;;;16.79;39.01;99595.00;4361882;32;33761;-88
2022/05/29 00:55:49;;;;;;;3.60;0.80;;;;;;;17.00;38.80;99587.84;4362047;32;33876;-88
2022/05/29 00:58:21;;;;;;;2.42;1.00;;;;;;;16.93;39.01;99586.34;4361642;32;32527;-87
2022/05/29 01:00:52;;;;;;;2.10;1.10;;;;;;;16.86;39.13;99585.69;4361705;32;31602;-88
2022/05/29 01:03:27;;;;;;;3.28;1.02;;;;;;;16.87;39.19;99579.06;4349664;32;33539;-88
2022/05/29 01:05:57;;;;;;;5.12;1.00;;;;;;;16.84;39.30;99582.34;4361671;32;33611;-88
2022/05/29 01:08:30;;;;;;;2.80;0.85;;;;;;;16.78;39.36;99576.72;4361598;32;33209;-88
2022/05/29 01:11:21;;;;;;;5.45;1.20;;;;;;;16.70;39.62;99574.34;4361669;32;32604;-87
2022/05/29 01:13:55;;;;;;;2.10;0.93;;;;;;;16.64;39.83;99575.34;4349217;32;32251;-87
2022/05/29 01:16:45;;;;;;;1.90;0.77;;;;;;;16.71;39.72;99572.41;4349401;32;33807;-88
2022/05/29 01:19:38;;;;;;;2.87;0.90;;;;;;;16.71;39.77;99577.97;4354318;32;34593;-88
2022/05/29 01:22:40;;;;;;;2.33;0.80;;;;;;;16.69;39.77;99574.59;4366707;32;34067;-88
2022/05/29 01:25:32;;;;;;;2.70;0.75;;;;;;;16.72;39.61;99572.16;4354125;32;33117;-87
2022/05/29 01:28:15;;;;;;;2.28;0.60;;;;;;;16.67;39.63;99579.56;4354167;32;33088;-88
2022/05/29 01:31:02;;;;;;;3.72;1.00;;;;;;;16.52;39.87;99576.50;4366309;32;34539;-87
2022/05/29 01:33:45;;;;;;;3.67;0.85;;;;;;;16.59;39.77;99585.47;4366429;32;33864;-88
2022/05/29 01:36:50;;;;;;;3.50;0.90;;;;;;;16.54;39.89;99580.69;4354021;32;32355;-87
2022/05/29 01:39:27;;;;;;;3.70;0.75;;;;;;;16.54;40.15;99583.47;4366289;32;34318;-88
2022/05/29 01:42:02;;;;;;;2.47;0.98;;;;;;;16.47;40.67;99580.00;4368368;32;32096;-87
2022/05/29 01:44:46;;;;;;;2.65;1.00;;;;;;;16.43;40.65;99584.38;4368877;32;33246;-88
2022/05/29 01:47:26;;;;;;;2.85;1.00;;;;;;;16.52;40.68;99582.03;4368554;32;33511;-88
2022/05/29 01:50:08;;;;;;;3.75;1.05;;;;;;;16.56;40.48;99583.22;4368320;32;34486;-87
2022/05/29 01:52:56;;;;;;;2.25;0.98;;;;;;;16.54;40.70;99588.16;4366358;32;32414;-87
2022/05/29 01:55:34;;;;;;;2.47;0.90;;;;;;;16.41;41.13;99581.84;4366485;32;33632;-87
2022/05/29 01:58:45;;;;;;;2.83;0.93;;;;;;;16.32;41.43;99577.78;4366588;32;34463;-87
2022/05/29 02:01:18;;;;;;;2.35;0.90;;;;;;;16.40;41.39;99579.31;4351490;32;32811;-88
2022/05/29 02:03:55;;;;;;;2.67;1.02;;;;;;;16.28;41.78;99584.09;4354477;32;34807;-87
2022/05/29 02:09:54;;;;;;;2.97;0.93;;;;;;;16.35;41.54;99579.22;4370404;32;34359;-88
2022/05/29 02:12:28;;;;;;;1.98;0.75;;;;;;;16.39;41.45;99570.19;4343907;32;32876;-88
2022/05/29 02:15:08;;;;;;;3.90;1.20;;;;;;;16.37;41.58;99569.59;4355737;32;34853;-88
2022/05/29 02:17:46;;;;;;;2.28;0.90;;;;;;;16.44;41.48;99567.50;4368415;32;33234;-88
2022/05/29 02:20:22;;;;;;;3.00;1.00;;;;;;;16.34;41.65;99564.53;4356008;32;34671;-87
2022/05/29 02:23:04;;;;;;;7.25;1.12;;;;;;;16.42;41.29;99560.53;4355006;32;32926;-87
2022/05/29 02:25:37;;;;;;;2.42;1.00;;;;;;;16.32;41.34;99565.87;4368269;32;34239;-88
2022/05/29 02:28:13;;;;;;;2.28;0.73;;;;;;;16.33;41.29;99565.63;4355666;32;31574;-89
2022/05/29 02:30:53;;;;;;;4.22;1.00;;;;;;;16.31;41.37;99548.44;4353184;32;33868;-88
2022/05/29 02:33:36;;;;;;;2.65;1.10;;;;;;;16.30;41.48;99562.53;4365729;32;34615;-88
2022/05/29 02:36:23;;;;;;;2.60;0.98;;;;;;;16.30;41.50;99563.38;4365251;32;32359;-87
2022/05/29 02:39:00;;;;;;;4.20;1.00;;;;;;;16.23;41.72;99559.09;4365292;32;34033;-88
2022/05/29 02:41:58;;;;;;;2.92;1.10;;;;;;;16.22;41.92;99557.41;4352965;32;33940;-86
2022/05/29 02:44:38;;;;;;;;;;;;;;;16.30;41.64;99551.44;4347651;32;32943;-88
2022/05/29 02:47:23;;;;;;;3.15;1.00;;;;;;;16.36;41.67;99547.69;4353021;32;32529;-86
2022/05/29 02:50:17;;;;;;;1.85;0.80;;;;;;;16.26;42.03;99550.25;4353486;32;34272;-88
2022/05/29 02:52:51;;;;;;;3.05;1.20;;;;;;;16.38;41.84;99542.72;4353135;32;32853;-88
2022/05/29 02:55:23;;;;;;;3.87;1.10;;;;;;;16.32;41.84;99539.03;4365443;32;34230;-88
2022/05/29 02:57:56;;;;;;;3.72;1.27;;;;;;;16.14;43.33;99542.03;4364946;32;33248;-88
2022/05/29 03:00:34;;;;;;;4.32;1.00;;;;;;;16.06;43.63;99546.06;4365387;32;33171;-87
2022/05/29 03:03:25;;;;;;;3.60;0.90;;;;;;;16.09;43.37;99550.25;4365989;32;32528;-87
2022/05/29 03:06:05;;;;;;;2.50;1.15;;;;;;;16.15;43.33;99540.97;4365576;32;35093;-88
2022/05/29 03:08:37;;;;;;;4.28;1.30;;;;;;;16.25;42.72;99538.34;4352877;32;32054;-88
2022/05/29 03:11:27;;;;;;;4.70;1.10;;;;;;;16.17;42.40;99535.16;4352730;32;32535;-88
2022/05/29 03:14:19;;;;;;;4.70;0.90;;;;;;;16.14;42.35;99534.56;4352779;32;33531;-88
2022/05/29 03:17:20;;;;;;;2.70;1.00;;;;;;;16.12;42.56;99522.91;4353629;32;32935;-88
2022/05/29 03:19:56;;;;;;;3.67;1.05;;;;;;;16.09;42.71;99530.88;4352936;32;32316;-88
2022/05/29 03:22:32;;;;;;;5.32;1.10;;;;;;;16.26;42.39;99517.03;4352796;32;33086;-87
2022/05/29 03:25:08;;;;;;;;;;;;;;;16.22;42.33;99521.41;4353073;32;32988;-88
2022/05/29 03:27:48;;;;;;;3.22;1.02;;;;;;;16.29;42.14;99522.06;4353484;32;33935;-88
2022/05/29 03:30:26;;;;;;;5.28;1.02;;;;;;;16.24;42.07;99517.31;4353262;32;34690;-87
2022/05/29 03:33:06;;;;;;;5.50;1.30;;;;;;;16.17;41.72;99513.87;4365108;32;33220;-88
2022/05/29 03:35:53;;;;;;;7.10;1.20;;;;;;;16.28;41.53;99514.84;4364652;32;32600;-87
2022/05/29 03:38:23;;;;;;;3.78;1.00;;;;;;;16.36;41.46;99517.22;4365155;32;34713;-87
2022/05/29 03:40:57;;;;;;;3.30;1.05;;;;;;;16.40;41.31;99515.63;4361068;32;33849;-88
2022/05/29 03:43:30;;;;;;;4.18;1.12;;;;;;;16.30;41.14;99510.75;4362495;32;33375;-87
2022/05/29 03:46:03;;;;;;;4.85;1.25;;;;;;;16.34;41.03;99511.06;4362675;32;33527;-88
2022/05/29 03:48:39;;;;;;;3.10;1.02;;;;;;;16.35;41.12;99507.22;4362351;32;35116;-88
2022/05/29 03:51:14;;;;;;;4.87;1.00;;;;;;;16.42;40.84;99511.50;4362375;32;33890;-88
2022/05/29 03:53:54;;;;;;;2.62;1.00;;;;;;;16.55;40.96;99520.56;4362138;32;32840;-87
2022/05/29 03:56:28;;;;;;;4.00;1.17;;;;;;;16.33;40.76;99514.94;4362349;32;33684;-87
2022/05/29 03:59:05;;;;;;;2.80;0.90;;;;;;;16.46;40.79;99517.38;4350219;32;34198;-88
2022/05/29 04:01:34;;;;;;;2.72;0.75;;;;;;;16.42;40.94;99514.28;4362401;32;33802;-87
2022/05/29 04:04:07;;;;;;;4.12;1.23;;;;;;;16.41;41.24;99518.13;4362466;32;33203;-88
2022/05/29 04:06:45;;;;;;;2.67;0.90;;;;;;;16.36;41.73;99523.59;4361912;32;32966;-87
2022/05/29 04:12:08;;;;;;;4.47;1.10;;;;;;;16.45;41.41;99522.09;4362128;32;32318;-87
2022/05/29 04:14:44;;;;;;;2.85;1.00;;;;;;;16.47;41.78;99511.59;4362225;32;32634;-87
2022/05/29 04:17:19;;;;;;;3.47;0.80;;;;;;;16.48;41.90;99515.19;4362156;32;34415;-86
2022/05/29 04:19:53;;;;;;;3.28;1.10;;;;;;;16.45;41.78;99510.16;4362135;32;33915;-87
2022/05/29 04:22:23;;;;;;;2.95;1.30;;;;;;;16.37;42.02;99505.87;4362269;32;34931;-87
2022/05/29 04:25:00;;;;;;;5.53;1.50;;;;;;;16.46;42.12;99506.31;4362112;32;34235;-87
2022/05/29 04:27:43;;;;;;;3.62;0.80;;;;;;;16.45;41.87;99507.41;4362090;32;33116;-87
2022/05/29 04:30:14;;;;;;;1.98;0.98;;;;;;;16.52;41.71;99510.00;4362066;32;34337;-88
2022/05/29 04:33:01;;;;;;;2.97;0.93;;;;;;;16.63;41.55;99511.84;4361733;32;32493;-87
2022/05/29 04:35:41;;;;;;;2.87;0.88;;;;;;;16.57;41.91;99510.91;4360878;32;32918;-88
2022/05/29 04:38:18;;;;;;;2.95;1.00;;;;;;;16.68;41.80;99509.19;4349832;32;32202;-88
2022/05/29 04:40:46;;;;;;;5.97;0.93;;;;;;;16.61;41.45;99503.78;4349599;32;33068;-87
2022/05/29 04:43:29;;;;;;;3.62;1.00;;;;;;;16.67;41.16;99507.50;4361853;32;32343;-88
2022/05/29 04:45:58;;;;;;;3.42;0.95;;;;;;;16.75;40.98;99510.69;4350269;32;32967;-88
2022/05/29 04:48:35;;;;;;;3.12;0.65;;;;;;;16.82;41.09;99518.00;4361996;32;32183;-88
2022/05/29 04:51:08;;;;;;;3.92;1.10;;;;;;;16.87;41.31;99515.31;4361746;32;34728;-87
2022/05/29 04:53:42;;;;;;;2.70;1.17;;;;;;;16.82;41.62;99516.06;4361281;32;34728;-87
2022/05/29 04:56:10;;;;;;;3.47;0.80;;;;;;;16.81;42.02;99519.94;4361774;32;31765;-86
2022/05/29 04:58:40;;;;;;;3.87;1.00;;;;;;;16.70;42.72;99512.53;4349568;32;34391;-87
2022/05/29 05:01:11;;;;;;;4.15;1.35;;;;;;;16.68;42.83;99521.09;4361754;32;34699;-86
2022/05/29 05:03:42;;;;;;;2.08;1.10;;;;;;;16.69;41.76;99520.03;4361378;32;32531;-87
2022/05/29 05:06:15;;;;;;;3.83;1.15;;;;;;;16.71;40.58;99509.53;4337452;32;31907;-86
2022/05/29 05:08:43;;;;;;;3.25;1.10;;;;;;;16.85;39.99;99520.25;4361865;32;33689;-87
2022/05/29 05:11:16;;;;;;;4.15;1.20;;;;;;;16.90;40.09;99512.81;4361654;32;33039;-87
2022/05/29 05:13:50;;;;;;;3.15;1.20;;;;;;;16.95;40.46;99509.28;4361843;32;33478;-86
2022/05/29 05:16:22;;;;;;;2.87;1.10;;;;;;;16.96;40.64;99514.59;4361520;32;33424;-87
2022/05/29 05:18:55;;;;;;;4.65;1.27;;;;;;;17.00;40.95;99515.75;4361562;32;33732;-87
2022/05/29 05:21:28;;;;;;;3.55;1.52;;;;;;;17.12;41.00;99519.25;4361459;32;33038;-87
2022/05/29 05:24:00;;;;;;;3.85;1.27;;;;;;;17.00;41.46;99518.53;4361184;32;32619;-87
2022/05/29 05:26:30;;;;;;;4.40;1.50;;;;;;;17.03;41.74;99515.25;4361175;32;32895;-87
2022/05/29 05:28:59;;;;;;;4.25;1.48;;;;;;;17.08;41.49;99520.03;4361141;32;32268;-87
2022/05/29 05:31:27;;;;;;;6.18;1.80;;;;;;;17.10;40.54;99515.06;4361346;32;34346;-87
2022/05/29 05:33:57;;;;;;;3.92;1.60;;;;;;;16.66;41.16;99509.44;4349114;32;32489;-87
2022/05/29 05:36:26;;;;;;;3.92;1.52;;;;;;;16.73;41.03;99512.03;4361234;32;31747;-88
2022/05/29 05:38:56;;;;;;;3.60;1.50;;;;;;;16.77;40.59;99511.28;4361302;32;33742;-88
2022/05/29 05:41:27;;;;;;;2.95;1.30;;;;;;;16.65;41.49;99516.06;4361217;32;33011;-88
2022/05/29 05:44:02;;;;;;;5.28;1.60;;;;;;;16.65;41.81;99510.53;4361413;32;34135;-89
2022/05/29 05:46:33;;;;;;;5.10;1.87;;;;;;;16.97;40.92;99515.44;4361369;32;33154;-88
2022/05/29 05:49:06;;;;;;;6.30;1.30;;;;;;;16.90;41.23;99504.50;4361154;32;33289;-88
2022/05/29 05:51:37;;;;;;;6.72;1.60;;;;;;;16.94;40.70;99505.69;4361190;32;34236;-88
2022/05/29 05:54:05;;;;;;;5.10;1.45;;;;;;;17.02;40.85;99504.41;4360888;32;33033;-88
2022/05/29 05:56:36;;;;;;;6.12;1.50;;;;;;;16.92;40.53;99510.66;4361113;32;31805;-88
2022/05/29 05:59:10;;;;;;;4.43;1.20;;;;;;;17.08;39.79;99497.84;4361028;32;33794;-88
2022/05/29 06:01:38;;;;;;;3.08;1.02;;;;;;;17.06;40.23;99500.03;4366282;32;35307;-88
2022/05/29 06:04:08;;;;;;;2.90;1.20;;;;;;;17.28;40.05;99503.66;4357448;32;33855;-91
2022/05/29 06:06:35;;;;;;;2.53;1.20;;;;;;;17.25;39.68;99506.13;4365853;32;31844;-87
2022/05/29 06:09:06;;;;;;;4.10;1.20;;;;;;;17.33;39.86;99503.75;4352036;32;33198;-88
2022/05/29 06:11:39;;;;;;;4.37;1.20;;;;;;;17.48;39.59;99497.56;4365906;32;34454;-87
2022/05/29 06:14:07;;;;;;;4.00;1.20;;;;;;;17.63;39.28;99505.19;4353375;32;32379;-87
2022/05/29 06:16:36;;;;;;;2.60;1.20;;;;;;;17.61;39.07;99501.84;4365556;32;32648;-87
2022/05/29 06:19:10;;;;;;;3.17;1.10;;;;;;;17.64;38.76;99496.59;4359346;32;33587;-87
2022/05/29 06:21:41;;;;;;;2.53;1.08;;;;;;;17.80;38.43;99499.59;4366567;32;32491;-89
2022/05/29 06:24:09;;;;;;;3.95;1.20;;;;;;;17.82;38.44;99498.22;4362973;32;34029;-87
2022/05/29 06:26:39;;;;;;;4.00;1.20;;;;;;;17.68;37.23;99496.97;4341372;32;31993;-87
2022/05/29 06:29:08;;;;;;;2.65;1.00;;;;;;;17.86;37.70;99493.00;4357009;32;34327;-88
2022/05/29 06:31:38;;;;;;;2.87;1.10;;;;;;;18.00;36.97;99489.53;4358759;32;34194;-88
2022/05/29 06:34:09;;;;;;;4.40;1.00;;;;;;;17.91;36.78;99501.38;4356910;32;32458;-87
2022/05/29 06:36:37;;;;;;;3.05;1.17;;;;;;;17.72;35.50;99504.50;4366622;32;34548;-87
2022/05/29 06:39:07;;;;;;;10.30;4.93;;;;;;;17.82;35.75;99506.56;4357944;32;32942;-87
2022/05/29 06:41:39;;;;;;;7.62;4.10;;;;;;;17.77;37.01;99500.94;4337551;32;34020;-86
2022/05/29 06:44:10;;;;;;;3.92;1.08;;;;;;;18.07;35.95;99503.22;4362031;32;34661;-87
2022/05/29 06:46:41;;;;;;;4.60;1.55;;;;;;;18.16;35.80;99498.03;4352635;32;33368;-88
2022/05/29 06:49:10;;;;;;;2.58;1.17;;;;;;;18.22;35.67;99496.94;4361101;32;33233;-86
2022/05/29 06:51:41;;;;;;;2.67;0.90;;;;;;;18.26;36.34;99498.09;4335389;32;33404;-86
2022/05/29 06:54:11;;;;;;;3.40;0.95;;;;;;;18.32;36.11;99497.87;4335866;33;32406;-87
2022/05/29 06:56:39;;;;;;;2.55;0.90;;;;;;;18.37;35.50;99494.31;4348119;33;34021;-88
2022/05/29 06:59:07;;;;;;;3.22;1.02;;;;;;;18.35;34.92;99502.91;4335688;33;34594;-89
2022/05/29 07:07:14;;;;;;;3.40;1.10;;;;;;;18.67;34.46;99496.53;4353443;32;31562;-88
2022/05/29 07:09:45;;;;;;;3.78;1.10;;;;;;;18.51;33.42;99498.31;4365498;32;33414;-89
2022/05/29 07:12:25;;;;;;;3.05;0.90;;;;;;;18.61;33.35;99492.03;4377079;32;34549;-87
2022/05/29 07:15:09;;;;;;;3.30;1.12;;;;;;;18.81;33.61;99483.00;4365002;32;34015;-87
2022/05/29 07:17:43;;;;;;;4.25;1.12;;;;;;;18.92;33.84;99490.28;4378643;32;33471;-88
2022/05/29 07:20:17;;;;;;;2.50;0.88;;;;;;;18.92;33.89;99487.50;4354105;32;33249;-87
2022/05/29 07:22:50;;;;;;;3.67;0.90;;;;;;;18.91;33.13;99483.06;4365117;32;32934;-89
2022/05/29 07:25:22;;;;;;;2.12;0.90;;;;;;;18.90;34.01;99484.16;4362129;32;34132;-90
2022/05/29 07:27:49;;;;;;;1.20;0.60;;;;;;;19.08;33.36;99489.28;4362146;32;33338;-88
2022/05/29 07:30:23;;;;;;;2.97;1.05;;;;;;;19.18;32.90;99488.50;4350635;32;33185;-87
2022/05/29 07:32:53;;;;;;;2.55;1.00;;;;;;;19.16;33.10;99474.87;4350295;32;33266;-88
2022/05/29 07:35:23;;;;;;;2.70;0.90;;;;;;;19.07;32.80;99482.87;4350219;32;33248;-89
2022/05/29 07:37:51;;;;;;;7.10;1.98;;;;;;;18.97;32.19;99482.81;4362409;32;33456;-88
2022/05/29 07:40:26;;;;;;;5.12;1.42;;;;;;;19.07;32.41;99484.81;4349851;32;32149;-88
2022/05/29 07:45:45;;;;;;;1.85;1.00;;;;;;;19.00;32.83;99473.94;4361484;32;33693;-87
2022/05/29 07:48:15;;;;;;;2.08;0.80;;;;;;;19.02;31.91;99465.31;4358119;32;31809;-86
2022/05/29 07:50:43;;;;;;;2.50;0.93;;;;;;;18.99;32.12;99474.22;4358744;32;33728;-87
2022/05/29 07:53:13;;;;;;;2.78;0.85;;;;;;;18.83;31.77;99469.69;4346379;32;33900;-88
2022/05/29 07:55:43;;;;;;;3.50;1.17;;;;;;;18.98;31.76;99466.97;4359115;32;32487;-87
2022/05/29 07:58:12;;;;;;;2.60;0.98;;;;;;;18.98;32.08;99462.25;4359671;32;34291;-88
2022/05/29 08:00:41;;;;;;;3.08;0.77;;;;;;;19.05;32.48;99462.84;4360559;32;32237;-88
2022/05/29 08:03:10;;;;;;;3.08;1.10;;;;;;;19.18;32.27;99460.69;4362275;32;33629;-88
2022/05/29 08:05:41;;;;;;;1.83;0.70;;;;;;;19.13;32.29;99461.50;4351998;32;33429;-87
2022/05/29 08:08:10;;;;;;;4.43;1.00;;;;;;;19.22;32.61;99459.03;4371290;32;34216;-88
2022/05/29 08:10:39;;;;;;;4.07;1.10;;;;;;;19.29;31.96;99459.63;4370017;32;33311;-88
2022/05/29 08:13:07;;;;;;;1.87;0.75;;;;;;;19.50;31.56;99458.56;4356760;32;33010;-88
2022/05/29 08:15:36;;;;;;;2.53;0.80;;;;;;;19.50;31.76;99463.34;4350553;32;33883;-89
2022/05/29 08:18:09;;;;;;;1.92;0.88;;;;;;;19.37;32.30;99451.59;4350343;32;32671;-88
2022/05/29 08:20:40;;;;;;;3.30;1.45;;;;;;;19.55;31.57;99457.78;4362446;32;34627;-89
2022/05/29 08:23:14;;;;;;;1.92;0.80;;;;;;;19.65;31.40;99446.69;4362024;32;33658;-89
2022/05/29 08:31:32;;;;;;;3.40;1.05;;;;;;;19.75;31.64;99446.72;4348444;32;32303;-89
2022/05/29 08:34:05;;;;;;;3.10;1.00;;;;;;;19.69;31.74;99445.03;4362157;32;33899;-89
2022/05/29 08:36:33;;;;;;;1.33;0.62;;;;;;;19.64;31.48;99440.28;4362181;32;34700;-89
2022/05/29 08:39:04;;;;;;;2.87;1.23;;;;;;;19.95;31.38;99449.53;4362106;32;33316;-89
2022/05/29 08:41:42;;;;;;;2.47;0.90;;;;;;;19.92;31.90;99438.94;4361791;32;32380;-88
2022/05/29 08:44:13;;;;;;;3.83;1.08;;;;;;;19.72;31.20;99447.25;4325823;32;32902;-88
2022/05/29 08:46:49;;;;;;;2.83;0.93;;;;;;;19.95;31.29;99432.81;4361975;32;34059;-87
2022/05/29 08:49:22;;;;;;;4.22;1.40;;;;;;;19.93;31.59;99435.06;4349960;32;33692;-89
2022/05/29 08:52:12;;;;;;;1.75;0.98;;;;;;;19.71;31.17;99440.00;4361919;32;33243;-89
2022/05/29 08:55:09;;;;;;;6.78;1.95;;;;;;;19.75;31.19;99430.00;4349722;32;33977;-89
2022/05/29 08:58:06;;;;;;;1.77;1.00;;;;;;;19.84;31.69;99425.56;4349649;32;33494;-89
2022/05/29 09:00:36;;;;;;;2.62;0.90;;;;;;;19.84;31.86;99433.91;4349722;32;31477;-89
2022/05/29 09:03:10;;;;;;;5.30;1.15;;;;;;;19.90;31.78;99435.59;4349990;32;32291;-90
2022/05/29 09:05:45;;;;;;;3.22;1.17;;;;;;;19.71;31.12;99428.87;4362172;32;34346;-89
2022/05/29 09:08:23;;;;;;;4.07;1.00;;;;;;;20.05;30.73;99432.84;4361768;32;32275;-90
2022/05/29 09:10:55;;;;;;;3.35;1.08;;;;;;;20.00;30.49;99426.44;4361622;32;33465;-89
2022/05/29 09:13:50;;;;;;;4.12;1.58;;;;;;;19.93;30.32;99428.66;4362053;32;33971;-89
2022/05/29 09:16:21;;;;;;;2.15;1.00;;;;;;;20.01;30.12;99426.16;4349980;32;34459;-89
2022/05/29 09:19:05;;;;;;;4.20;0.88;;;;;;;19.91;30.33;99428.09;4361640;32;32469;-89
2022/05/29 09:22:19;;;;;;;6.53;0.93;;;;;;;20.05;29.73;99421.69;4350131;32;34007;-89
2022/05/29 09:24:57;;;;;;;15.02;7.22;;;;;;;19.89;29.10;99422.78;4337211;32;32174;-92
2022/05/29 09:27:25;;;;;;;3.78;1.67;;;;;;;20.37;29.57;99417.78;4349430;32;32984;-89
2022/05/29 09:29:53;;;;;;;3.65;1.20;;;;;;;20.37;29.68;99418.59;4361523;32;34048;-88
2022/05/29 09:32:25;;;;;;;4.22;1.15;;;;;;;20.57;28.57;99414.16;4337097;32;32575;-87
2022/05/29 09:34:59;;;;;;;4.00;0.90;;;;;;;20.44;28.64;99412.78;4361470;32;33889;-89
2022/05/29 09:37:44;;;;;;;2.67;0.90;;;;;;;20.42;29.20;99411.38;4350411;32;33407;-88
2022/05/29 09:40:36;;;;;;;3.75;0.90;;;;;;;20.30;30.47;99418.06;4364255;32;33924;-89
2022/05/29 09:43:19;;;;;;;2.85;0.75;;;;;;;20.31;29.39;99411.38;4366053;32;33782;-88
2022/05/29 09:45:47;;;;;;;2.67;1.05;;;;;;;20.44;29.32;99407.22;4353725;32;33769;-88
2022/05/29 09:51:18;;;;;;;3.30;1.20;;;;;;;20.46;29.64;99406.94;4365712;32;32167;-88
2022/05/29 09:53:48;;;;;;;;;;;;;;;20.37;30.13;99401.03;4366459;32;33254;-89
2022/05/29 09:56:37;;;;;;;2.45;0.80;;;;;;;20.48;28.74;99407.47;4353904;32;34087;-89
2022/05/29 09:59:13;;;;;;;2.70;0.90;;;;;;;20.22;29.13;99399.09;4353803;32;35316;-88
2022/05/29 10:01:42;;;;;;;6.57;1.30;;;;;;;20.43;29.72;99402.75;4365710;32;34053;-88
2022/05/29 10:04:22;;;;;;;5.90;1.37;;;;;;;20.50;29.08;99399.69;4353661;32;31641;-88
2022/05/29 10:06:57;;;;;;;3.83;1.85;;;;;;;20.34;28.65;99396.88;4365507;32;32878;-89
2022/05/29 10:09:26;;;;;;;2.95;0.93;;;;;;;20.70;28.66;99394.91;4366218;32;35290;-88
2022/05/29 10:11:59;;;;;;;3.72;1.00;;;;;;;20.82;28.46;99379.78;4353454;32;32441;-89
2022/05/29 10:14:41;;;;;;;4.28;0.90;;;;;;;20.53;28.91;99393.53;4365677;32;34128;-89
2022/05/29 10:17:37;;;;;;;2.33;0.90;;;;;;;20.46;28.02;99393.81;4353747;32;33355;-88
2022/05/29 10:20:33;;;;;;;2.70;0.80;;;;;;;20.25;28.12;99392.97;4343943;32;34483;-89
2022/05/29 10:23:27;;;;;;;3.08;0.98;;;;;;;20.42;29.22;99391.87;4365112;32;34677;-88
2022/05/29 10:25:58;;;;;;;2.62;1.10;;;;;;;20.61;29.37;99388.22;4350577;32;31816;-88
2022/05/29 10:28:36;;;;;;;4.43;1.20;;;;;;;20.64;29.18;99381.25;4354528;32;31611;-89
2022/05/29 10:31:13;;;;;;;12.18;4.25;;;;;;;20.86;29.12;99378.94;4351138;32;34371;-89
2022/05/29 10:34:24;;;;;;;2.60;0.98;;;;;;;20.78;29.38;99367.56;4363466;32;33843;-90
2022/05/29 10:37:30;;;;;;;3.47;1.00;;;;;;;20.53;29.18;99383.22;4335723;32;32049;-91
2022/05/29 10:40:19;;;;;;;;;;;;;;;20.52;29.49;99384.34;4364719;32;34448;-90
2022/05/29 10:42:55;;;;;;;2.30;1.00;;;;;;;20.55;29.54;99377.38;4374416;32;34285;-88
2022/05/29 10:45:28;;;;;;;3.67;1.30;;;;;;;20.40;29.98;99375.44;4352039;32;33174;-80
2022/05/29 10:48:06;;;;;;;3.30;0.80;;;;;;;20.38;30.10;99378.50;4356443;32;32995;-87
2022/05/29 10:50:35;;;;;;;2.60;0.88;;;;;;;20.16;30.10;99382.66;4368184;32;32433;-87
2022/05/29 10:53:21;;;;;;;4.68;1.05;;;;;;;20.42;30.06;99383.50;4358531;32;34182;-86
2022/05/29 10:56:10;;;;;;;3.60;0.88;;;;;;;20.17;31.15;99374.03;4360503;32;33959;-88
2022/05/29 10:58:59;;;;;;;2.17;0.73;;;;;;;20.21;31.07;99369.56;4373068;32;33432;-88
2022/05/29 11:05:03;;;;;;;4.93;1.20;;;;;;;20.31;31.05;99368.72;4370502;32;34572;-89
2022/05/29 11:07:42;;;;;;;4.82;1.42;;;;;;;20.41;30.56;99367.91;4375546;32;34145;-87
2022/05/29 11:10:41;;;;;;;2.92;1.15;;;;;;;20.32;30.14;99359.25;4367134;32;32655;-88
2022/05/29 11:13:14;;;;;;;3.40;1.30;;;;;;;20.47;30.51;99370.41;4354379;32;32406;-88
2022/05/29 11:16:16;;;;;;;3.00;1.17;;;;;;;20.53;30.99;99372.06;4339253;32;32835;-89
2022/05/29 11:19:25;;;;;;;2.67;0.88;;;;;;;20.16;30.80;99371.50;4338327;32;34780;-89
2022/05/29 11:22:25;;;;;;;8.23;2.90;;;;;;;20.30;29.94;99361.47;4293506;33;32637;-90
2022/05/29 11:25:17;;;;;;;4.70;1.50;;;;;;;20.32;30.59;99357.28;4356891;32;32199;-88
2022/05/29 11:27:50;;;;;;;6.82;2.30;;;;;;;20.39;30.55;99365.41;4358599;32;33272;-87
2022/05/29 11:30:40;;;;;;;5.80;1.30;;;;;;;20.64;30.46;99348.62;4370071;32;33664;-88
2022/05/29 11:33:23;;;;;;;5.30;1.40;;;;;;;20.68;30.66;99346.94;4357356;32;32153;-89
2022/05/29 11:35:57;;;;;;;9.18;1.12;;;;;;;20.48;30.24;99346.16;4360565;32;32930;-84
2022/05/29 11:38:43;;;;;;;2.95;0.75;;;;;;;20.79;30.00;99346.91;4393534;32;34348;-84
2022/05/29 11:41:15;;;;;;;5.60;1.08;;;;;;;20.76;29.77;99347.47;4365009;32;34180;-84
2022/05/29 11:43:45;;;;;;;3.75;1.10;;;;;;;20.83;30.46;99346.03;4355719;32;31806;-84
2022/05/29 11:52:18;;;;;;;4.15;0.88;;;;;;;20.82;30.99;99338.78;4369490;32;34221;-85
2022/05/29 11:55:13;;;;;;;2.67;1.02;;;;;;;20.76;30.04;99330.75;4362573;32;31863;-85
2022/05/29 11:57:58;;;;;;;4.90;1.20;;;;;;;20.86;30.73;99336.25;4364300;32;33905;-85
2022/05/29 12:00:42;;;;;;;3.77;1.20;;;;;;;20.75;29.88;99334.66;4356084;32;32965;-84
2022/05/29 12:03:23;;;;;;;4.18;0.95;;;;;;;20.62;30.31;99339.72;4345944;33;34068;-85
2022/05/29 12:06:12;;;;;;;4.28;1.50;;;;;;;20.63;30.51;99327.44;4347419;33;32734;-83
2022/05/29 12:08:56;;;;;;;3.58;1.33;;;;;;;20.99;29.37;99328.09;4353913;32;33146;-84
2022/05/29 12:11:32;;;;;;;2.90;1.20;;;;;;;20.91;29.26;99327.88;4357652;32;32971;-84
2022/05/29 12:14:15;;;;;;;6.55;2.58;;;;;;;20.48;29.04;99321.06;4362006;32;34201;-85
2022/05/29 12:16:44;;;;;;;3.47;1.25;;;;;;;21.02;28.97;99315.53;4377314;32;33391;-83
2022/05/29 12:20:05;;;;;;;4.20;1.55;;;;;;;20.98;29.63;99312.50;4374830;32;33873;-84
2022/05/29 12:22:39;;;;;;;3.42;1.00;;;;;;;20.81;29.04;99316.75;4348823;32;33069;-84
2022/05/29 12:25:18;;;;;;;3.80;1.08;;;;;;;21.12;28.80;99300.69;4362254;32;32345;-84
2022/05/29 12:27:46;;;;;;;4.12;1.10;;;;;;;21.23;29.05;99317.13;4364735;32;32988;-84
2022/05/29 12:30:26;;;;;;;3.25;1.23;;;;;;;20.83;29.07;99314.50;4365163;32;34648;-84
2022/05/29 12:32:59;;;;;;;2.20;0.98;;;;;;;20.87;29.93;99310.03;4372376;32;35178;-85
2022/05/29 12:35:35;;;;;;;2.08;0.82;;;;;;;21.08;29.46;99313.56;4364976;32;34489;-83
2022/05/29 12:38:24;;;;;;;2.62;0.90;;;;;;;20.97;29.05;99315.56;4377048;32;33238;-84
2022/05/29 12:41:08;;;;;;;3.28;0.88;;;;;;;21.09;28.97;99316.06;4364564;32;32141;-86
2022/05/29 12:44:08;;;;;;;3.08;1.00;;;;;;;21.19;29.67;99313.22;4377025;32;35109;-84
2022/05/29 12:46:47;;;;;;;6.10;1.00;;;;;;;21.09;29.66;99312.44;4350939;32;33374;-84
2022/05/29 12:49:37;;;;;;;4.15;1.15;;;;;;;20.99;30.77;99314.16;4348410;32;31689;-84
2022/05/29 12:52:38;;;;;;;4.75;1.20;;;;;;;20.87;30.54;99318.41;4356095;32;33735;-84
2022/05/29 12:55:31;;;;;;;4.20;1.00;;;;;;;20.81;30.41;99322.31;4353851;32;32698;-83